Аэропорт: Якутск. Якутск

ICAO: UEEE

METAR:
2018/05/20 23:00
UEEE 202300Z 33004MPS CAVOK 08/M02 Q1017 R23L/09//60 NOSIG RMK QFE754
METAR:
2018/05/20 21:00
TAF UEEE 202000Z 2021/2203 31005G10MPS CAVOK 
      BECMG 2117/2119 10007G12MPS